KWWR

West Woodward Airport

Woodward, Oklahoma, USA
KWWR 182320Z 1900/1924 34022G30KT P6SM -RA OVC011 FM190300 34025G32KT P6SM -SN OVC006 FM190600 34022G30KT P6SM OVC025 FM191300 33016G23KT P6SM SCT030 BKN250
Issued Valid From Valid To
Jan-18 @ 23:20 UTC
(4 hours ago)
Jan-19 @ 00:00 UTC
(3 hours ago)
Jan-20 @ 00:00 UTC
(in 21 hours)
Jan-19 @ 00:00 to Jan-19 @ 03:00
KWWR 182320Z 1900/1924 34022G30KT P6SM -RA OVC011
Wind Visibility Clouds Conditions
340° at 22 knots
 Gusting to 30 knots
Greater than 6 miles
  • Overcast at 1,100' AGL
  • Light Rain
From Jan-19 @ 03:00 to Jan-19 @ 06:00
FM190300 34025G32KT P6SM -SN OVC006
Wind Visibility Clouds Conditions
340° at 25 knots
 Gusting to 32 knots
Greater than 6 miles
  • Overcast at 600' AGL
  • Light Snow
From Jan-19 @ 06:00 to Jan-19 @ 13:00
FM190600 34022G30KT P6SM OVC025
Wind Visibility Clouds
340° at 22 knots
 Gusting to 30 knots
Greater than 6 miles
  • Overcast at 2,500' AGL
From Jan-19 @ 13:00 to Jan-20 @ 00:00
FM191300 33016G23KT P6SM SCT030 BKN250
Wind Visibility Clouds
330° at 16 knots
 Gusting to 23 knots
Greater than 6 miles
  • Scattered at 3,000' AGL
  • Broken at 25,000' AGL
KWWR 182320Z 1900/1924 34022G30KT P6SM -RA OVC011 FM190300 34025G32KT P6SM -SN OVC006 FM190600 34022G30KT P6SM OVC025 FM191300 33016G23KT P6SM SCT030 BKN250
Issued Jan-18 @ 23:20 UTC
(4 hours ago)
Valid From Jan-19 @ 00:00 UTC
(3 hours ago)
Valid To Jan-20 @ 00:00 UTC
(in 21 hours)
Jan-19 @ 00:00 - Jan-19 @ 03:00
Wind Visibility
340° at 22 knots
 Gusting to 30 knots
Greater than 6 miles
Clouds
  • Overcast at 1,100' AGL
Conditions
  • Light Rain
From Jan-19 @ 03:00 - Jan-19 @ 06:00
Wind Visibility
340° at 25 knots
 Gusting to 32 knots
Greater than 6 miles
Clouds
  • Overcast at 600' AGL
Conditions
  • Light Snow
From Jan-19 @ 06:00 - Jan-19 @ 13:00
Wind Visibility
340° at 22 knots
 Gusting to 30 knots
Greater than 6 miles
Clouds
  • Overcast at 2,500' AGL
From Jan-19 @ 13:00 - Jan-20 @ 00:00
Wind Visibility
330° at 16 knots
 Gusting to 23 knots
Greater than 6 miles
Clouds
  • Scattered at 3,000' AGL
  • Broken at 25,000' AGL